Time;durP1;ratioP1;P1;durP2;ratioP2;P2;SDS_P1;SDS_P2;PMS_P1;PMS_P2;Temp;Humidity;BMP_temperature;BMP_pressure;BME280_temperature;BME280_humidity;BME280_pressure;Samples;Min_cycle;Max_cycle;Signal;HPM_P1;HPM_P2
2022/09/28 00:01:59;;;;;;;30.30;14.23;;;;;;;;;;4894979;29;20028;-60
2022/09/28 00:04:24;;;;;;;29.65;14.73;;;;;;;;;;4894534;29;20048;-60
2022/09/28 00:06:50;;;;;;;30.83;14.05;;;;;;;;;;4891195;29;20068;-60
2022/09/28 00:09:16;;;;;;;30.73;13.60;;;;;;;;;;4876250;29;20441;-63
2022/09/28 00:11:45;;;;;;;30.63;14.57;;;;;;;;;;4892810;29;20032;-60
2022/09/28 00:14:11;;;;;;;29.95;14.25;;;;;;;;;;4893240;29;20033;-60
2022/09/28 00:16:40;;;;;;;32.55;13.93;;;;;;;;;;4894442;29;20107;-59
2022/09/28 00:19:07;;;;;;;32.70;14.50;;;;;;;;;;4893416;29;20091;-60
2022/09/28 00:21:35;;;;;;;30.83;14.50;;;;;;;;;;4895644;29;20033;-62
2022/09/28 00:24:11;;;;;;;34.17;14.07;;;;;;;;;;4891441;29;20068;-60
2022/09/28 00:26:39;;;;;;;29.08;13.23;;;;;;;;;;4896496;29;20084;-59
2022/09/28 00:29:05;;;;;;;25.67;12.07;;;;;;;;;;4896175;29;20553;-62
2022/09/28 00:31:33;;;;;;;27.85;11.32;;;;;;;;;;4895610;29;20401;-62
2022/09/28 00:33:59;;;;;;;28.02;11.77;;;;;;;;;;4896925;29;20405;-61
2022/09/28 00:36:27;;;;;;;26.15;11.52;;;;;;;;;;4896441;29;20151;-61
2022/09/28 00:38:55;;;;;;;22.23;9.50;;;;;;;;;;4881508;29;20048;-61
2022/09/28 00:41:22;;;;;;;25.42;11.30;;;;;;;;;;4878553;29;20077;-61
2022/09/28 00:43:47;;;;;;;25.15;11.73;;;;;;;;;;4895896;29;20084;-61
2022/09/28 00:46:27;;;;;;;30.83;12.07;;;;;;;;;;4897796;29;20449;-61
2022/09/28 00:49:02;;;;;;;25.95;11.57;;;;;;;;;;4864654;29;20080;-61
2022/09/28 00:51:29;;;;;;;26.02;11.75;;;;;;;;;;4897284;29;20051;-62
2022/09/28 00:53:55;;;;;;;27.13;12.68;;;;;;;;;;4897525;29;20036;-61
2022/09/28 00:56:26;;;;;;;31.42;12.77;;;;;;;;;;4894713;29;20051;-61
2022/09/28 00:58:53;;;;;;;34.05;13.23;;;;;;;;;;4896036;29;20040;-61
2022/09/28 01:01:19;;;;;;;26.75;12.32;;;;;;;;;;4882016;29;20048;-61
2022/09/28 01:03:47;;;;;;;32.90;13.82;;;;;;;;;;4896653;29;20036;-61
2022/09/28 01:06:21;;;;;;;27.85;12.45;;;;;;;;;;4894293;29;20033;-61
2022/09/28 01:08:50;;;;;;;28.73;12.80;;;;;;;;;;4897416;29;20493;-61
2022/09/28 01:11:17;;;;;;;27.45;12.40;;;;;;;;;;4881955;29;20041;-61
2022/09/28 01:13:43;;;;;;;26.50;12.82;;;;;;;;;;4878127;29;20044;-61
2022/09/28 01:16:24;;;;;;;28.80;12.00;;;;;;;;;;4897302;29;20073;-62
2022/09/28 01:19:00;;;;;;;24.08;11.82;;;;;;;;;;4894250;29;20032;-62
2022/09/28 01:21:26;;;;;;;24.60;12.43;;;;;;;;;;4896964;29;20044;-62
2022/09/28 01:24:17;;;;;;;20.52;11.18;;;;;;;;;;4896390;29;20047;-62
2022/09/28 01:26:47;;;;;;;;;;;;;;;;;;4897741;29;20044;-61
2022/09/28 01:29:12;;;;;;;22.52;10.77;;;;;;;;;;4894588;29;20339;-62
2022/09/28 01:31:42;;;;;;;19.77;11.07;;;;;;;;;;4886653;29;20033;-60
2022/09/28 01:34:21;;;;;;;20.33;10.87;;;;;;;;;;4895360;29;20040;-61
2022/09/28 01:36:49;;;;;;;18.20;10.57;;;;;;;;;;4894884;29;20055;-63
2022/09/28 01:39:36;;;;;;;18.38;10.60;;;;;;;;;;4890217;29;20115;-63
2022/09/28 01:42:24;;;;;;;19.08;9.98;;;;;;;;;;4895388;29;20036;-64
2022/09/28 01:44:53;;;;;;;19.48;9.85;;;;;;;;;;4895021;29;20059;-62
2022/09/28 01:47:22;;;;;;;18.35;10.43;;;;;;;;;;4896325;29;20465;-63
2022/09/28 01:50:08;;;;;;;20.65;10.35;;;;;;;;;;4894245;29;20076;-63
2022/09/28 01:52:53;;;;;;;21.05;9.88;;;;;;;;;;4896836;29;20058;-61
2022/09/28 01:55:35;;;;;;;17.05;10.10;;;;;;;;;;4894158;29;20032;-62
2022/09/28 01:58:11;;;;;;;16.75;9.88;;;;;;;;;;4896793;29;20029;-62
2022/09/28 02:00:41;;;;;;;16.83;9.27;;;;;;;;;;4891713;29;20028;-61
2022/09/28 02:03:24;;;;;;;17.27;10.02;;;;;;;;;;4886266;29;20033;-62
2022/09/28 02:06:05;;;;;;;17.13;8.80;;;;;;;;;;4891519;29;20351;-62
2022/09/28 02:08:35;;;;;;;18.63;9.90;;;;;;;;;;4897180;29;20542;-63
2022/09/28 02:11:12;;;;;;;17.95;10.13;;;;;;;;;;4892309;29;20056;-63
2022/09/28 02:13:48;;;;;;;16.88;9.20;;;;;;;;;;4895093;29;20095;-60
2022/09/28 02:16:42;;;;;;;21.35;10.35;;;;;;;;;;4890781;29;20116;-63
2022/09/28 02:19:17;;;;;;;21.65;10.48;;;;;;;;;;4895523;29;20036;-61
2022/09/28 02:22:01;;;;;;;20.40;10.65;;;;;;;;;;4895130;29;20041;-63
2022/09/28 02:24:41;;;;;;;25.05;11.20;;;;;;;;;;4894044;29;21234;-62
2022/09/28 02:27:24;;;;;;;19.60;10.90;;;;;;;;;;4895837;29;20040;-62
2022/09/28 02:29:49;;;;;;;21.98;11.40;;;;;;;;;;4888272;29;20100;-63
2022/09/28 02:32:16;;;;;;;25.42;11.68;;;;;;;;;;4877955;29;20462;-60
2022/09/28 02:34:41;;;;;;;25.05;12.82;;;;;;;;;;4879038;29;20036;-62
2022/09/28 02:37:07;;;;;;;28.33;13.13;;;;;;;;;;4896134;29;20084;-63
2022/09/28 02:39:32;;;;;;;23.85;13.52;;;;;;;;;;4890067;29;20488;-63
2022/09/28 02:42:16;;;;;;;25.23;13.48;;;;;;;;;;4892620;29;20044;-63
2022/09/28 02:44:59;;;;;;;24.63;13.43;;;;;;;;;;4893586;29;20029;-63
2022/09/28 02:47:57;;;;;;;24.35;13.68;;;;;;;;;;4893567;29;20124;-63
2022/09/28 02:50:40;;;;;;;24.20;13.05;;;;;;;;;;4893466;29;20070;-63
2022/09/28 02:53:34;;;;;;;27.38;14.57;;;;;;;;;;4894070;29;20458;-65
2022/09/28 02:56:19;;;;;;;27.88;14.95;;;;;;;;;;4894020;29;20044;-65
2022/09/28 02:59:03;;;;;;;26.20;14.90;;;;;;;;;;4890738;29;20045;-64
2022/09/28 03:02:00;;;;;;;24.40;14.60;;;;;;;;;;4881114;29;20032;-64
2022/09/28 03:04:50;;;;;;;26.13;14.45;;;;;;;;;;4875720;29;20067;-63
2022/09/28 03:07:30;;;;;;;22.55;13.82;;;;;;;;;;4892156;29;20048;-65
2022/09/28 03:10:00;;;;;;;22.52;13.82;;;;;;;;;;4893387;29;20044;-65
2022/09/28 03:12:28;;;;;;;21.80;12.05;;;;;;;;;;4893804;29;20473;-65
2022/09/28 03:15:09;;;;;;;22.70;13.02;;;;;;;;;;4889029;29;20088;-65
2022/09/28 03:17:35;;;;;;;26.25;13.20;;;;;;;;;;4893766;29;20128;-64
2022/09/28 03:20:01;;;;;;;24.33;13.98;;;;;;;;;;4894531;29;20115;-66
2022/09/28 03:22:26;;;;;;;23.90;13.50;;;;;;;;;;4890758;29;20036;-66
2022/09/28 03:24:52;;;;;;;23.25;12.68;;;;;;;;;;4894280;29;20045;-66
2022/09/28 03:27:17;;;;;;;23.20;13.55;;;;;;;;;;4893836;29;20107;-66
2022/09/28 03:29:43;;;;;;;23.65;13.32;;;;;;;;;;4894384;29;20047;-66
2022/09/28 03:32:08;;;;;;;23.63;13.80;;;;;;;;;;4892628;29;20438;-65
2022/09/28 03:34:34;;;;;;;23.05;13.88;;;;;;;;;;4893276;29;20048;-67
2022/09/28 03:37:00;;;;;;;26.08;14.32;;;;;;;;;;4893818;29;20045;-67
2022/09/28 03:39:25;;;;;;;23.98;13.18;;;;;;;;;;4894021;29;20041;-66
2022/09/28 03:41:51;;;;;;;26.08;14.32;;;;;;;;;;4891838;29;20497;-66
2022/09/28 03:44:16;;;;;;;22.40;13.57;;;;;;;;;;4889215;29;20123;-65
2022/09/28 03:46:41;;;;;;;25.80;14.10;;;;;;;;;;4874835;29;20149;-65
2022/09/28 03:49:08;;;;;;;23.63;13.70;;;;;;;;;;4893763;29;20048;-65
2022/09/28 03:51:33;;;;;;;24.13;12.88;;;;;;;;;;4894613;29;20112;-65
2022/09/28 03:53:59;;;;;;;22.13;12.90;;;;;;;;;;4893478;29;20473;-65
2022/09/28 03:56:24;;;;;;;34.75;13.98;;;;;;;;;;4893583;29;20048;-66
2022/09/28 03:58:50;;;;;;;25.13;13.68;;;;;;;;;;4895719;29;20033;-67
2022/09/28 04:01:15;;;;;;;25.63;14.38;;;;;;;;;;4898947;29;20044;-66
2022/09/28 04:03:42;;;;;;;23.17;13.45;;;;;;;;;;4896416;29;20645;-66
2022/09/28 04:06:07;;;;;;;21.38;12.68;;;;;;;;;;4898923;29;20041;-66
2022/09/28 04:08:43;;;;;;;20.25;12.23;;;;;;;;;;4898645;29;20466;-65
2022/09/28 04:11:08;;;;;;;21.33;12.43;;;;;;;;;;4898878;29;20043;-66
2022/09/28 04:13:34;;;;;;;19.35;12.23;;;;;;;;;;4897312;29;20029;-66
2022/09/28 04:16:00;;;;;;;19.73;11.88;;;;;;;;;;4892528;29;20379;-66
2022/09/28 04:18:26;;;;;;;22.27;12.32;;;;;;;;;;4899520;29;20123;-66
2022/09/28 04:21:06;;;;;;;21.35;12.35;;;;;;;;;;4897450;29;20167;-65
2022/09/28 04:23:33;;;;;;;20.92;12.40;;;;;;;;;;4899204;29;20044;-65
2022/09/28 04:25:59;;;;;;;22.45;12.00;;;;;;;;;;4897039;29;20117;-65
2022/09/28 04:31:12;;;;;;;22.02;12.90;;;;;;;;;;4898403;29;20047;-65
2022/09/28 04:33:37;;;;;;;21.65;12.85;;;;;;;;;;4897602;29;20051;-62
2022/09/28 04:36:03;;;;;;;25.05;13.32;;;;;;;;;;4898152;29;20430;-65
2022/09/28 04:38:29;;;;;;;23.20;13.45;;;;;;;;;;4897874;29;20040;-65
2022/09/28 04:40:54;;;;;;;23.80;13.30;;;;;;;;;;4897756;29;20894;-65
2022/09/28 04:43:19;;;;;;;23.20;13.55;;;;;;;;;;4897969;29;20037;-63
2022/09/28 04:45:45;;;;;;;22.55;13.68;;;;;;;;;;4897083;29;20139;-65
2022/09/28 04:48:10;;;;;;;25.23;13.82;;;;;;;;;;4898185;29;20138;-64
2022/09/28 04:50:35;;;;;;;23.63;13.43;;;;;;;;;;4897037;29;20033;-62
2022/09/28 04:53:01;;;;;;;23.40;12.77;;;;;;;;;;4898369;29;20513;-65
2022/09/28 04:55:31;;;;;;;22.08;12.75;;;;;;;;;;4897814;29;20065;-65
2022/09/28 04:58:01;;;;;;;24.13;13.05;;;;;;;;;;4895555;29;20175;-65
2022/09/28 05:00:31;;;;;;;23.23;12.43;;;;;;;;;;4897949;29;20123;-64
2022/09/28 05:02:57;;;;;;;23.95;13.60;;;;;;;;;;4897457;29;20689;-64
2022/09/28 05:05:22;;;;;;;23.33;13.32;;;;;;;;;;4896669;29;20047;-65
2022/09/28 05:07:48;;;;;;;24.77;14.90;;;;;;;;;;4895807;29;20064;-65
2022/09/28 05:10:13;;;;;;;26.80;15.55;;;;;;;;;;4897843;29;20040;-64
2022/09/28 05:12:39;;;;;;;25.10;15.07;;;;;;;;;;4879416;29;20032;-61
2022/09/28 05:15:04;;;;;;;31.38;16.02;;;;;;;;;;4890191;29;20248;-64
2022/09/28 05:17:30;;;;;;;33.38;16.83;;;;;;;;;;4898509;29;20032;-64
2022/09/28 05:19:56;;;;;;;30.85;16.55;;;;;;;;;;4896561;29;20235;-64
2022/09/28 05:22:21;;;;;;;28.65;16.73;;;;;;;;;;4898486;29;20033;-64
2022/09/28 05:24:46;;;;;;;27.67;16.80;;;;;;;;;;4878340;29;20040;-64
2022/09/28 05:27:12;;;;;;;31.70;17.35;;;;;;;;;;4896936;29;20452;-64
2022/09/28 05:29:37;;;;;;;32.92;17.48;;;;;;;;;;4895993;29;20036;-62
2022/09/28 05:32:03;;;;;;;29.35;16.98;;;;;;;;;;4897583;29;20025;-63
2022/09/28 05:34:28;;;;;;;31.63;17.88;;;;;;;;;;4896368;29;20073;-63
2022/09/28 05:36:54;;;;;;;30.30;17.55;;;;;;;;;;4886696;29;20040;-63
2022/09/28 05:39:19;;;;;;;30.98;17.08;;;;;;;;;;4896926;29;20099;-63
2022/09/28 05:41:45;;;;;;;31.38;17.92;;;;;;;;;;4895262;29;20036;-62
2022/09/28 05:44:10;;;;;;;30.10;17.15;;;;;;;;;;4896875;29;20049;-62
2022/09/28 05:46:35;;;;;;;31.17;17.45;;;;;;;;;;4896661;29;20036;-61
2022/09/28 05:49:01;;;;;;;28.83;17.10;;;;;;;;;;4879464;29;20028;-62
2022/09/28 05:51:26;;;;;;;29.80;16.65;;;;;;;;;;4897389;29;20462;-62
2022/09/28 05:53:56;;;;;;;28.58;16.52;;;;;;;;;;4895685;29;20029;-61
2022/09/28 05:56:21;;;;;;;28.77;16.05;;;;;;;;;;4895642;29;20048;-61
2022/09/28 05:58:46;;;;;;;29.10;16.42;;;;;;;;;;4896173;29;20040;-61
2022/09/28 06:01:12;;;;;;;27.58;15.02;;;;;;;;;;4895630;29;20036;-61
2022/09/28 06:03:37;;;;;;;29.23;17.00;;;;;;;;;;4897031;29;20446;-60
2022/09/28 06:06:03;;;;;;;30.30;17.08;;;;;;;;;;4896730;29;20037;-61
2022/09/28 06:08:31;;;;;;;28.90;16.08;;;;;;;;;;4895894;29;20041;-61
2022/09/28 06:11:00;;;;;;;28.10;15.98;;;;;;;;;;4892241;29;20038;-61
2022/09/28 06:13:26;;;;;;;25.20;15.43;;;;;;;;;;4895927;29;20032;-61
2022/09/28 06:15:52;;;;;;;24.40;15.48;;;;;;;;;;4895739;29;20031;-61
2022/09/28 06:18:18;;;;;;;26.55;15.45;;;;;;;;;;4896486;29;20037;-61
2022/09/28 06:20:43;;;;;;;24.75;14.73;;;;;;;;;;4895056;29;20509;-60
2022/09/28 06:23:10;;;;;;;24.73;15.13;;;;;;;;;;4895672;29;20044;-60
2022/09/28 06:25:35;;;;;;;26.33;14.85;;;;;;;;;;4894733;29;20040;-60
2022/09/28 06:28:03;;;;;;;25.25;14.48;;;;;;;;;;4894724;29;20413;-60
2022/09/28 06:30:31;;;;;;;27.75;15.80;;;;;;;;;;4882103;29;20107;-61
2022/09/28 06:32:58;;;;;;;26.27;15.75;;;;;;;;;;4894890;29;20040;-60
2022/09/28 06:35:25;;;;;;;24.75;14.80;;;;;;;;;;4895649;29;20028;-60
2022/09/28 06:37:51;;;;;;;24.52;14.70;;;;;;;;;;4895320;29;20074;-60
2022/09/28 06:40:17;;;;;;;29.25;16.73;;;;;;;;;;4894931;29;20040;-61
2022/09/28 06:42:43;;;;;;;31.40;17.80;;;;;;;;;;4894891;29;20032;-60
2022/09/28 06:45:09;;;;;;;29.33;17.02;;;;;;;;;;4895548;29;20119;-60
2022/09/28 06:47:36;;;;;;;33.30;17.38;;;;;;;;;;4894892;29;20036;-60
2022/09/28 06:50:03;;;;;;;28.77;17.08;;;;;;;;;;4895528;29;20040;-60
2022/09/28 06:52:28;;;;;;;31.35;18.80;;;;;;;;;;4895895;29;20060;-60
2022/09/28 06:54:54;;;;;;;31.70;19.23;;;;;;;;;;4893754;29;20036;-60
2022/09/28 06:57:19;;;;;;;27.65;17.30;;;;;;;;;;4896874;29;20431;-60
2022/09/28 06:59:44;;;;;;;30.10;18.17;;;;;;;;;;4895156;29;20037;-60
2022/09/28 07:02:13;;;;;;;33.38;18.05;;;;;;;;;;4895501;29;20041;-60
2022/09/28 07:04:40;;;;;;;28.92;18.50;;;;;;;;;;4894304;29;20490;-60
2022/09/28 07:07:07;;;;;;;30.35;18.48;;;;;;;;;;4896588;29;20058;-61
2022/09/28 07:09:33;;;;;;;30.92;18.48;;;;;;;;;;4894236;29;20408;-60
2022/09/28 07:11:58;;;;;;;34.05;19.45;;;;;;;;;;4877472;29;20125;-60
2022/09/28 07:14:24;;;;;;;32.53;19.20;;;;;;;;;;4889993;29;20458;-60
2022/09/28 07:16:49;;;;;;;33.35;19.10;;;;;;;;;;4895888;29;20041;-60
2022/09/28 07:19:15;;;;;;;30.35;18.13;;;;;;;;;;4895401;29;20036;-60
2022/09/28 07:21:40;;;;;;;31.63;18.13;;;;;;;;;;4894784;29;20486;-60
2022/09/28 07:24:06;;;;;;;32.72;18.75;;;;;;;;;;4896504;29;20072;-60
2022/09/28 07:26:32;;;;;;;30.27;18.38;;;;;;;;;;4894773;29;20433;-61
2022/09/28 07:28:57;;;;;;;31.55;17.00;;;;;;;;;;4895672;29;20528;-61
2022/09/28 07:31:24;;;;;;;31.13;18.35;;;;;;;;;;4895255;29;20111;-61
2022/09/28 07:33:50;;;;;;;32.67;18.15;;;;;;;;;;4897665;29;20374;-60
2022/09/28 07:36:16;;;;;;;29.10;16.92;;;;;;;;;;4899187;29;20491;-61
2022/09/28 07:38:42;;;;;;;29.40;16.85;;;;;;;;;;4898556;29;20036;-60
2022/09/28 07:41:11;;;;;;;26.27;16.17;;;;;;;;;;4898261;29;20029;-62
2022/09/28 07:43:38;;;;;;;29.75;17.55;;;;;;;;;;4898777;29;20039;-60
2022/09/28 07:46:08;;;;;;;25.15;15.55;;;;;;;;;;4898648;29;20033;-60
2022/09/28 07:48:35;;;;;;;30.27;17.65;;;;;;;;;;4899306;29;20036;-61
2022/09/28 07:51:01;;;;;;;34.65;18.00;;;;;;;;;;4898505;29;20039;-60
2022/09/28 07:53:27;;;;;;;32.90;17.35;;;;;;;;;;4899669;29;20036;-61
2022/09/28 07:56:02;;;;;;;34.88;17.50;;;;;;;;;;4897450;29;20036;-62
2022/09/28 07:58:28;;;;;;;27.30;17.08;;;;;;;;;;4899737;29;20474;-62
2022/09/28 08:00:53;;;;;;;28.50;17.02;;;;;;;;;;4897822;29;20047;-62
2022/09/28 08:03:21;;;;;;;29.35;16.13;;;;;;;;;;4898622;29;20041;-62
2022/09/28 08:05:47;;;;;;;28.83;17.30;;;;;;;;;;4897591;29;20053;-62
2022/09/28 08:08:13;;;;;;;24.50;14.38;;;;;;;;;;4898437;29;20032;-62
2022/09/28 08:10:41;;;;;;;22.92;14.80;;;;;;;;;;4896507;29;20430;-61
2022/09/28 08:13:07;;;;;;;22.88;14.95;;;;;;;;;;4882964;29;20378;-62
2022/09/28 08:15:35;;;;;;;25.30;14.25;;;;;;;;;;4898490;29;20033;-61
2022/09/28 08:18:02;;;;;;;25.67;15.30;;;;;;;;;;4897566;29;20401;-62
2022/09/28 08:23:12;;;;;;;19.55;11.93;;;;;;;;;;4898790;29;20084;-61
2022/09/28 08:25:37;;;;;;;20.95;12.85;;;;;;;;;;4896635;29;20040;-61
2022/09/28 08:28:05;;;;;;;20.65;12.50;;;;;;;;;;4897937;29;20124;-61
2022/09/28 08:30:30;;;;;;;20.13;12.63;;;;;;;;;;4898152;29;20040;-62
2022/09/28 08:32:56;;;;;;;19.73;12.38;;;;;;;;;;4897011;29;20661;-61
2022/09/28 08:35:24;;;;;;;18.20;12.43;;;;;;;;;;4897496;29;20393;-61
2022/09/28 08:37:53;;;;;;;19.20;12.20;;;;;;;;;;4897807;29;20439;-61
2022/09/28 08:40:24;;;;;;;22.85;13.65;;;;;;;;;;4896980;29;20486;-61
2022/09/28 08:43:05;;;;;;;21.60;13.35;;;;;;;;;;4897310;29;20086;-62
2022/09/28 08:45:35;;;;;;;19.15;12.13;;;;;;;;;;4897730;29;20037;-61
2022/09/28 08:51:05;;;;;;;21.23;13.63;;;;;;;;;;4879466;29;20869;-62
2022/09/28 08:53:55;;;;;;;20.25;13.13;;;;;;;;;;4897999;29;20397;-61
2022/09/28 08:56:41;;;;;;;18.15;12.43;;;;;;;;;;4896932;29;20088;-63
2022/09/28 08:59:19;;;;;;;19.00;11.48;;;;;;;;;;4880027;29;20115;-62
2022/09/28 09:01:54;;;;;;;17.45;11.70;;;;;;;;;;4892933;29;20119;-61
2022/09/28 09:04:20;;;;;;;18.35;11.75;;;;;;;;;;4897533;29;20057;-61
2022/09/28 09:07:13;;;;;;;17.10;11.45;;;;;;;;;;4881715;29;20096;-62
2022/09/28 09:10:03;;;;;;;16.85;10.63;;;;;;;;;;4898408;29;20458;-61
2022/09/28 09:13:11;;;;;;;14.98;10.00;;;;;;;;;;4896529;29;20028;-61
2022/09/28 09:16:01;;;;;;;18.98;11.65;;;;;;;;;;4890858;29;20122;-63
2022/09/28 09:18:42;;;;;;;16.88;11.60;;;;;;;;;;4891449;29;20048;-64
2022/09/28 09:21:31;;;;;;;17.02;11.45;;;;;;;;;;4897274;29;20042;-63
2022/09/28 09:24:09;;;;;;;16.90;11.82;;;;;;;;;;4897469;29;20048;-61
2022/09/28 09:26:38;;;;;;;16.10;11.18;;;;;;;;;;4897248;29;20033;-61
2022/09/28 09:29:09;;;;;;;15.77;11.90;;;;;;;;;;4897211;29;20048;-61
2022/09/28 09:32:13;;;;;;;15.55;11.00;;;;;;;;;;4897570;29;20394;-61
2022/09/28 09:34:58;;;;;;;15.25;10.65;;;;;;;;;;4893010;29;20092;-61
2022/09/28 09:38:09;;;;;;;14.15;9.82;;;;;;;;;;4897204;29;20032;-61
2022/09/28 09:40:34;;;;;;;13.05;9.23;;;;;;;;;;4897383;29;20065;-62
2022/09/28 09:43:37;;;;;;;14.15;9.57;;;;;;;;;;4894697;29;20036;-61
2022/09/28 09:46:14;;;;;;;12.95;9.25;;;;;;;;;;4895395;29;20505;-61
2022/09/28 09:48:42;;;;;;;14.55;9.75;;;;;;;;;;4896505;29;20056;-62
2022/09/28 09:51:19;;;;;;;14.13;9.38;;;;;;;;;;4898028;29;20033;-62
2022/09/28 09:53:58;;;;;;;13.75;8.48;;;;;;;;;;4896703;29;20466;-61
2022/09/28 09:56:43;;;;;;;12.40;8.88;;;;;;;;;;4879743;29;20540;-62
2022/09/28 09:59:17;;;;;;;13.07;9.05;;;;;;;;;;4888731;29;20478;-61
2022/09/28 10:01:44;;;;;;;11.98;8.77;;;;;;;;;;4895828;29;20061;-62
2022/09/28 10:04:28;;;;;;;8.98;6.30;;;;;;;;;;4895299;29;20518;-63
2022/09/28 10:07:01;;;;;;;8.00;6.28;;;;;;;;;;4883772;29;20036;-62
2022/09/28 10:09:36;;;;;;;7.90;5.57;;;;;;;;;;4896535;29;20103;-62
2022/09/28 10:12:01;;;;;;;8.15;5.07;;;;;;;;;;4895246;29;20044;-61
2022/09/28 10:14:27;;;;;;;12.00;5.28;;;;;;;;;;4895148;29;20371;-61
2022/09/28 10:16:55;;;;;;;6.88;4.93;;;;;;;;;;4895454;29;20048;-61
2022/09/28 10:19:32;;;;;;;9.23;5.28;;;;;;;;;;4896386;29;20036;-61
2022/09/28 10:22:04;;;;;;;4.97;3.58;;;;;;;;;;4896327;29;20032;-61
2022/09/28 10:24:37;;;;;;;9.70;5.10;;;;;;;;;;4896212;29;20036;-61
2022/09/28 10:27:33;;;;;;;8.15;5.15;;;;;;;;;;4895010;29;20028;-60
2022/09/28 10:30:08;;;;;;;8.02;5.28;;;;;;;;;;4878535;29;20396;-60
2022/09/28 10:32:39;;;;;;;7.80;5.50;;;;;;;;;;4897473;29;20028;-61
2022/09/28 10:35:10;;;;;;;;;;;;;;;;;;4876657;29;20391;-60
2022/09/28 10:37:51;;;;;;;8.50;6.40;;;;;;;;;;4877793;29;20296;-60
2022/09/28 10:40:39;;;;;;;9.63;6.95;;;;;;;;;;4874917;29;20119;-60
2022/09/28 10:43:18;;;;;;;9.52;6.35;;;;;;;;;;4892747;29;20044;-60
2022/09/28 10:45:44;;;;;;;7.30;5.50;;;;;;;;;;4895258;29;20036;-61
2022/09/28 10:48:18;;;;;;;9.30;5.80;;;;;;;;;;4894706;29;20076;-60
2022/09/28 10:50:57;;;;;;;8.13;4.95;;;;;;;;;;4894543;29;20490;-61
2022/09/28 10:53:23;;;;;;;5.90;4.15;;;;;;;;;;4896938;29;20056;-62
2022/09/28 10:56:03;;;;;;;6.60;4.50;;;;;;;;;;4893566;29;20445;-61
2022/09/28 10:58:40;;;;;;;5.50;4.00;;;;;;;;;;4877842;29;20037;-61
2022/09/28 11:01:25;;;;;;;5.38;3.05;;;;;;;;;;4896193;29;20049;-62
2022/09/28 11:03:55;;;;;;;4.80;3.30;;;;;;;;;;4891060;29;20510;-63
2022/09/28 11:06:34;;;;;;;3.85;2.95;;;;;;;;;;4896843;29;20032;-62
2022/09/28 11:09:03;;;;;;;3.78;2.90;;;;;;;;;;4894988;29;20025;-61
2022/09/28 11:11:30;;;;;;;5.43;3.00;;;;;;;;;;4896545;29;20033;-61
2022/09/28 11:14:03;;;;;;;7.15;3.00;;;;;;;;;;4894651;29;20037;-61
2022/09/28 11:16:31;;;;;;;6.57;3.47;;;;;;;;;;4893492;29;20045;-61
2022/09/28 11:19:03;;;;;;;4.72;3.35;;;;;;;;;;4894657;29;20095;-61
2022/09/28 11:21:39;;;;;;;8.88;4.32;;;;;;;;;;4895555;29;20072;-61
2022/09/28 11:24:17;;;;;;;4.78;3.50;;;;;;;;;;4895317;29;20040;-61
2022/09/28 11:26:45;;;;;;;4.40;3.40;;;;;;;;;;4895491;29;20032;-61
2022/09/28 11:29:18;;;;;;;5.45;3.78;;;;;;;;;;4895361;29;20060;-61
2022/09/28 11:31:45;;;;;;;6.05;4.55;;;;;;;;;;4894419;29;20052;-61
2022/09/28 11:34:27;;;;;;;6.18;4.30;;;;;;;;;;4894863;29;20496;-61
2022/09/28 11:37:14;;;;;;;5.22;4.20;;;;;;;;;;4895152;29;20512;-60
2022/09/28 11:39:39;;;;;;;6.22;4.53;;;;;;;;;;4894679;29;20037;-60
2022/09/28 11:42:10;;;;;;;7.45;4.80;;;;;;;;;;4896419;29;20092;-61
2022/09/28 11:44:47;;;;;;;7.55;5.10;;;;;;;;;;4893495;29;20509;-60
2022/09/28 11:47:22;;;;;;;7.53;4.90;;;;;;;;;;4894356;29;20075;-60
2022/09/28 11:49:54;;;;;;;6.30;5.10;;;;;;;;;;4894738;29;20441;-61
2022/09/28 11:52:42;;;;;;;8.77;6.40;;;;;;;;;;4895343;29;20051;-61
2022/09/28 11:55:13;;;;;;;7.57;5.80;;;;;;;;;;4894645;29;20065;-60
2022/09/28 11:57:42;;;;;;;8.38;6.47;;;;;;;;;;4895386;29;20467;-60
2022/09/28 12:00:11;;;;;;;8.68;6.22;;;;;;;;;;4894475;29;20419;-60
2022/09/28 12:02:49;;;;;;;8.10;5.93;;;;;;;;;;4893185;29;20120;-60
2022/09/28 12:05:29;;;;;;;7.57;5.57;;;;;;;;;;4895084;29;20052;-61
2022/09/28 12:08:26;;;;;;;6.70;5.28;;;;;;;;;;4895449;29;20811;-61
2022/09/28 12:10:57;;;;;;;6.65;5.25;;;;;;;;;;4894832;29;20039;-61
2022/09/28 12:13:28;;;;;;;6.88;5.30;;;;;;;;;;4894442;29;20044;-62
2022/09/28 12:15:56;;;;;;;;;;;;;;;;;;4894796;29;20367;-62
2022/09/28 12:18:40;;;;;;;7.70;5.15;;;;;;;;;;4894192;29;20013;-61
2022/09/28 12:21:08;;;;;;;7.38;5.18;;;;;;;;;;4897594;29;20056;-62
2022/09/28 12:23:37;;;;;;;7.85;5.70;;;;;;;;;;4897711;29;20091;-61
2022/09/28 12:26:16;;;;;;;7.32;5.40;;;;;;;;;;4896715;29;20049;-61
2022/09/28 12:28:48;;;;;;;8.75;5.20;;;;;;;;;;4898793;29;20032;-61
2022/09/28 12:31:19;;;;;;;7.30;4.65;;;;;;;;;;4898138;29;20048;-61
2022/09/28 12:33:50;;;;;;;5.70;4.30;;;;;;;;;;4897462;29;20040;-61
2022/09/28 12:36:25;;;;;;;;;;;;;;;;;;4874520;29;20483;-60
2022/09/28 12:39:02;;;;;;;6.70;4.40;;;;;;;;;;4891552;29;19919;-60
2022/09/28 12:41:59;;;;;;;7.05;4.65;;;;;;;;;;4898334;29;20037;-60
2022/09/28 12:44:43;;;;;;;6.55;4.57;;;;;;;;;;4893286;29;20052;-59
2022/09/28 12:47:37;;;;;;;6.70;4.60;;;;;;;;;;4898309;29;20386;-59
2022/09/28 12:50:29;;;;;;;7.03;4.70;;;;;;;;;;4897892;29;20474;-61
2022/09/28 12:53:12;;;;;;;6.05;4.70;;;;;;;;;;4897989;29;20096;-60
2022/09/28 12:55:45;;;;;;;6.20;4.90;;;;;;;;;;4897294;29;20037;-59
2022/09/28 12:58:37;;;;;;;8.20;5.05;;;;;;;;;;4896826;29;20090;-60
2022/09/28 13:01:15;;;;;;;6.32;4.55;;;;;;;;;;4885141;29;20473;-60
2022/09/28 13:03:44;;;;;;;6.50;4.90;;;;;;;;;;4897138;29;20037;-60
2022/09/28 13:06:15;;;;;;;6.80;5.18;;;;;;;;;;4896604;29;20047;-60
2022/09/28 13:09:22;;;;;;;6.65;4.65;;;;;;;;;;4897981;29;20040;-60
2022/09/28 13:12:10;;;;;;;7.60;4.70;;;;;;;;;;4897884;29;20037;-60
2022/09/28 13:14:54;;;;;;;5.25;3.28;;;;;;;;;;4896777;29;20123;-60
2022/09/28 13:17:39;;;;;;;4.53;3.50;;;;;;;;;;4896477;29;20040;-60
2022/09/28 13:20:31;;;;;;;5.68;3.60;;;;;;;;;;4897432;29;20048;-61
2022/09/28 13:23:02;;;;;;;;;;;;;;;;;;4897251;29;20049;-61
2022/09/28 13:25:33;;;;;;;5.10;3.90;;;;;;;;;;4896644;29;19919;-61
2022/09/28 13:28:04;;;;;;;4.70;3.30;;;;;;;;;;4896657;29;20037;-61
2022/09/28 13:30:32;;;;;;;5.10;3.55;;;;;;;;;;4896619;29;20442;-61
2022/09/28 13:33:01;;;;;;;4.28;3.00;;;;;;;;;;4897463;29;20028;-61
2022/09/28 13:35:27;;;;;;;3.75;2.85;;;;;;;;;;4897124;29;20059;-61
2022/09/28 13:38:48;;;;;;;4.30;2.90;;;;;;;;;;4897478;29;20036;-61
2022/09/28 13:41:17;;;;;;;4.00;2.53;;;;;;;;;;4838387;29;20075;-61
2022/09/28 13:44:03;;;;;;;3.67;2.60;;;;;;;;;;4836532;29;20431;-60
2022/09/28 13:46:38;;;;;;;4.25;2.50;;;;;;;;;;4881075;29;20504;-61
2022/09/28 13:49:25;;;;;;;3.65;2.40;;;;;;;;;;4897511;29;20025;-61
2022/09/28 13:52:11;;;;;;;2.97;2.40;;;;;;;;;;4878491;29;20064;-61
2022/09/28 13:54:39;;;;;;;5.43;2.78;;;;;;;;;;4879999;29;20045;-61
2022/09/28 13:57:47;;;;;;;5.68;2.70;;;;;;;;;;4896780;29;20059;-60
2022/09/28 14:00:35;;;;;;;4.72;3.15;;;;;;;;;;4818961;29;20423;-60
2022/09/28 14:03:18;;;;;;;5.53;3.33;;;;;;;;;;4832151;29;20045;-60
2022/09/28 14:06:06;;;;;;;5.38;3.30;;;;;;;;;;4867284;29;20049;-61
2022/09/28 14:08:50;;;;;;;5.85;3.13;;;;;;;;;;4852613;29;20025;-61
2022/09/28 14:11:33;;;;;;;5.57;3.60;;;;;;;;;;4876710;29;20037;-61
2022/09/28 14:14:26;;;;;;;5.10;3.40;;;;;;;;;;4878124;29;20048;-61
2022/09/28 14:17:20;;;;;;;5.07;3.40;;;;;;;;;;4874630;29;20056;-62
2022/09/28 14:19:52;;;;;;;5.40;3.92;;;;;;;;;;4849046;29;20053;-60
2022/09/28 14:22:29;;;;;;;6.13;3.78;;;;;;;;;;4875188;29;20037;-60
2022/09/28 14:25:02;;;;;;;8.57;4.28;;;;;;;;;;4875461;29;20035;-60
2022/09/28 14:27:50;;;;;;;6.35;4.15;;;;;;;;;;4877760;29;20080;-61
2022/09/28 14:30:18;;;;;;;6.13;4.15;;;;;;;;;;4858372;29;20053;-61
2022/09/28 14:33:15;;;;;;;6.32;4.20;;;;;;;;;;4871098;29;20037;-60
2022/09/28 14:35:44;;;;;;;6.22;4.68;;;;;;;;;;4875034;29;20041;-62
2022/09/28 14:41:16;;;;;;;6.90;4.50;;;;;;;;;;4877173;29;20386;-62
2022/09/28 14:43:45;;;;;;;10.35;4.95;;;;;;;;;;4858977;29;20395;-60
2022/09/28 14:46:10;;;;;;;9.57;4.90;;;;;;;;;;4877238;29;20037;-61
2022/09/28 14:48:52;;;;;;;7.88;5.07;;;;;;;;;;4877622;29;20104;-61
2022/09/28 14:51:23;;;;;;;8.73;5.00;;;;;;;;;;4877661;29;20043;-60
2022/09/28 14:53:50;;;;;;;6.47;5.03;;;;;;;;;;4877642;29;20039;-60
2022/09/28 14:56:18;;;;;;;10.05;5.18;;;;;;;;;;4876722;29;20033;-61
2022/09/28 14:58:45;;;;;;;7.43;5.00;;;;;;;;;;4874385;29;20052;-60
2022/09/28 15:01:23;;;;;;;7.22;4.97;;;;;;;;;;4861712;29;20431;-61
2022/09/28 15:03:53;;;;;;;8.00;4.78;;;;;;;;;;4850747;29;20096;-61
2022/09/28 15:06:22;;;;;;;7.82;5.05;;;;;;;;;;4895716;29;20041;-62
2022/09/28 15:08:47;;;;;;;5.97;4.93;;;;;;;;;;4895672;29;20059;-60
2022/09/28 15:11:17;;;;;;;7.82;5.57;;;;;;;;;;4894402;29;20390;-61
2022/09/28 15:13:42;;;;;;;9.57;5.30;;;;;;;;;;4895825;29;20109;-60